createdAt,value
2019-06-07T00:02:02.810Z,6.00
2019-06-07T00:04:41.290Z,6.78
2019-06-07T00:07:14.331Z,5.62
2019-06-07T00:09:55.287Z,6.22
2019-06-07T00:12:21.775Z,6.95
2019-06-07T00:14:51.982Z,7.30
2019-06-07T00:17:28.412Z,5.22
2019-06-07T00:20:15.050Z,5.28
2019-06-07T00:22:48.143Z,6.33
2019-06-07T00:25:24.144Z,6.10
2019-06-07T00:27:50.332Z,7.42
2019-06-07T00:30:42.336Z,5.08
2019-06-07T00:32:58.011Z,5.97
2019-06-07T00:35:33.474Z,5.62
2019-06-07T00:38:18.843Z,4.67
2019-06-07T00:40:47.746Z,4.22
2019-06-07T00:43:26.074Z,5.30
2019-06-07T00:45:54.858Z,5.58
2019-06-07T00:48:32.098Z,4.60
2019-06-07T00:51:00.756Z,5.87
2019-06-07T00:53:36.123Z,5.67
2019-06-07T00:56:30.491Z,5.08
2019-06-07T00:59:11.338Z,4.70
2019-06-07T01:01:37.008Z,4.55
2019-06-07T01:04:06.277Z,4.92
2019-06-07T01:06:35.437Z,4.60
2019-06-07T01:09:10.803Z,4.20
2019-06-07T01:11:48.741Z,4.47
2019-06-07T01:14:24.135Z,4.55
2019-06-07T01:17:40.023Z,5.08
2019-06-07T01:19:57.258Z,4.22
2019-06-07T01:22:29.462Z,4.25
2019-06-07T01:24:59.772Z,5.80
2019-06-07T01:27:29.035Z,4.20
2019-06-07T01:29:58.283Z,3.95
2019-06-07T01:32:32.120Z,4.87
2019-06-07T01:35:22.127Z,3.92
2019-06-07T01:37:52.745Z,3.08
2019-06-07T01:40:30.449Z,4.57
2019-06-07T01:42:56.901Z,4.92
2019-06-07T01:45:30.887Z,4.87
2019-06-07T01:48:02.084Z,4.85
2019-06-07T01:50:32.890Z,3.85
2019-06-07T01:53:06.278Z,5.97
2019-06-07T01:55:38.398Z,4.42
2019-06-07T01:58:10.881Z,5.90
2019-06-07T02:00:40.377Z,4.33
2019-06-07T02:03:21.390Z,3.95
2019-06-07T02:05:53.332Z,4.30
2019-06-07T02:08:26.535Z,2.87
2019-06-07T02:10:54.896Z,3.45
2019-06-07T02:13:27.836Z,3.52
2019-06-07T02:15:58.164Z,5.08
2019-06-07T02:18:34.334Z,4.35
2019-06-07T02:21:03.261Z,4.50
2019-06-07T02:23:36.046Z,3.87
2019-06-07T02:26:05.193Z,3.37
2019-06-07T02:28:44.979Z,3.95
2019-06-07T02:31:12.825Z,3.25
2019-06-07T02:33:42.227Z,4.87
2019-06-07T02:36:11.557Z,3.25
2019-06-07T02:38:44.976Z,4.83
2019-06-07T02:41:11.586Z,3.60
2019-06-07T02:43:46.249Z,3.65
2019-06-07T02:46:35.318Z,3.67
2019-06-07T02:48:56.453Z,3.62
2019-06-07T02:51:31.986Z,3.90
2019-06-07T02:53:57.709Z,4.35
2019-06-07T02:56:39.058Z,3.58
2019-06-07T02:58:57.632Z,4.75
2019-06-07T03:01:28.586Z,3.77
2019-06-07T03:03:57.744Z,3.62
2019-06-07T03:06:30.978Z,3.35
2019-06-07T03:08:58.787Z,4.25
2019-06-07T03:11:31.791Z,2.92
2019-06-07T03:14:02.045Z,3.50
2019-06-07T03:16:37.263Z,3.37
2019-06-07T03:19:11.234Z,3.02
2019-06-07T03:21:42.728Z,3.30
2019-06-07T03:24:13.498Z,2.90
2019-06-07T03:27:32.105Z,3.20
2019-06-07T03:29:18.184Z,3.10
2019-06-07T03:31:48.303Z,3.05
2019-06-07T03:34:17.992Z,4.65
2019-06-07T03:36:51.522Z,3.40
2019-06-07T03:39:23.649Z,2.98
2019-06-07T03:42:05.872Z,3.98
2019-06-07T03:44:32.148Z,3.35
2019-06-07T03:46:59.072Z,3.08
2019-06-07T03:49:30.665Z,3.55
2019-06-07T03:52:02.070Z,2.75
2019-06-07T03:54:36.949Z,2.70
2019-06-07T03:57:07.481Z,3.95
2019-06-07T03:59:39.581Z,4.42
2019-06-07T04:02:07.315Z,3.72
2019-06-07T04:04:38.454Z,2.87
2019-06-07T04:07:07.002Z,3.00
2019-06-07T04:09:40.132Z,3.30
2019-06-07T04:12:07.079Z,3.12
2019-06-07T04:14:38.509Z,3.37
2019-06-07T04:17:06.858Z,3.20
2019-06-07T04:19:43.319Z,2.47
2019-06-07T04:22:10.566Z,3.10
2019-06-07T04:24:41.910Z,3.12
2019-06-07T04:27:10.603Z,2.90
2019-06-07T04:30:02.991Z,3.00
2019-06-07T04:32:18.361Z,4.17
2019-06-07T04:34:49.573Z,2.60
2019-06-07T04:37:18.643Z,2.83
2019-06-07T04:39:47.616Z,2.62
2019-06-07T04:42:16.902Z,2.80
2019-06-07T04:44:46.408Z,3.08
2019-06-07T04:47:16.004Z,3.00
2019-06-07T04:49:46.544Z,3.15
2019-06-07T04:52:22.551Z,5.40
2019-06-07T04:54:54.445Z,3.98
2019-06-07T04:57:23.689Z,5.33
2019-06-07T05:00:34.252Z,4.10
2019-06-07T05:02:29.670Z,7.20
2019-06-07T05:05:01.158Z,5.97
2019-06-07T05:07:30.958Z,5.35
2019-06-07T05:10:01.143Z,6.57
2019-06-07T05:12:32.718Z,6.15
2019-06-07T05:15:02.906Z,8.60
2019-06-07T05:17:44.815Z,8.43
2019-06-07T05:20:12.263Z,8.60
2019-06-07T05:22:45.056Z,6.58
2019-06-07T05:25:12.391Z,6.78
2019-06-07T05:27:46.603Z,4.40
2019-06-07T05:30:57.751Z,4.78
2019-06-07T05:32:46.308Z,5.00
2019-06-07T05:35:16.493Z,3.83
2019-06-07T05:37:46.094Z,6.47
2019-06-07T05:40:57.428Z,7.70
2019-06-07T05:43:35.009Z,3.40
2019-06-07T05:46:07.010Z,6.90
2019-06-07T05:48:42.093Z,6.15
2019-06-07T05:51:10.592Z,8.20
2019-06-07T05:53:45.982Z,8.35
2019-06-07T05:56:16.220Z,6.12
2019-06-07T05:58:46.107Z,10.15
2019-06-07T06:01:42.158Z,6.70
2019-06-07T06:03:48.273Z,12.28
2019-06-07T06:06:17.024Z,11.50
2019-06-07T06:08:47.967Z,9.73
2019-06-07T06:11:16.934Z,12.73
2019-06-07T06:14:05.265Z,8.38
2019-06-07T06:16:19.511Z,5.72
2019-06-07T06:18:51.478Z,7.03
2019-06-07T06:21:20.744Z,4.33
2019-06-07T06:23:54.028Z,5.30
2019-06-07T06:26:23.237Z,7.10
2019-06-07T06:28:56.748Z,4.92
2019-06-07T06:31:25.779Z,5.35
2019-06-07T06:33:54.774Z,17.12
2019-06-07T06:36:24.051Z,24.25
2019-06-07T06:38:53.500Z,20.85
2019-06-07T06:41:22.951Z,16.15
2019-06-07T06:43:54.846Z,16.12
2019-06-07T06:46:38.009Z,18.23
2019-06-07T06:48:55.778Z,21.37
2019-06-07T06:51:25.334Z,15.53
2019-06-07T06:53:54.450Z,21.75
2019-06-07T06:56:23.692Z,18.52
2019-06-07T06:59:33.948Z,14.90
2019-06-07T07:01:23.760Z,15.88
2019-06-07T07:04:11.386Z,16.75
2019-06-07T07:06:26.310Z,17.30
2019-06-07T07:08:56.012Z,19.27
2019-06-07T07:11:24.992Z,15.07
2019-06-07T07:13:56.737Z,18.42
2019-06-07T07:16:25.922Z,15.60
2019-06-07T07:18:54.971Z,14.35
2019-06-07T07:21:24.003Z,17.17
2019-06-07T07:24:19.796Z,11.70
2019-06-07T07:26:23.818Z,13.68
2019-06-07T07:28:57.134Z,13.62
2019-06-07T07:31:23.492Z,18.00
2019-06-07T07:34:30.873Z,13.28
2019-06-07T07:36:38.912Z,13.67
2019-06-07T07:39:00.471Z,12.70
2019-06-07T07:41:24.691Z,15.53
2019-06-07T07:44:05.246Z,14.05
2019-06-07T07:46:29.471Z,15.45
2019-06-07T07:48:56.194Z,11.90
2019-06-07T07:51:25.683Z,9.00
2019-06-07T07:54:09.360Z,7.85
2019-06-07T07:56:25.571Z,8.50
2019-06-07T07:59:01.088Z,8.40
2019-06-07T08:01:25.808Z,11.03
2019-06-07T08:03:56.574Z,13.53
2019-06-07T08:06:25.953Z,8.33
2019-06-07T08:08:57.019Z,8.18
2019-06-07T08:11:26.111Z,8.97
2019-06-07T08:13:57.212Z,8.48
2019-06-07T08:16:25.991Z,10.97
2019-06-07T08:18:58.571Z,10.35
2019-06-07T08:21:27.389Z,10.43
2019-06-07T08:24:00.572Z,8.83
2019-06-07T08:26:27.137Z,9.20
2019-06-07T08:28:59.013Z,8.48
2019-06-07T08:31:26.909Z,10.80
2019-06-07T08:33:58.350Z,8.23
2019-06-07T08:36:41.242Z,8.03
2019-06-07T08:39:05.720Z,9.77
2019-06-07T08:41:28.306Z,9.00
2019-06-07T08:44:00.582Z,6.80
2019-06-07T08:46:28.340Z,6.93
2019-06-07T08:49:02.861Z,11.45
2019-06-07T08:51:28.272Z,5.50
2019-06-07T08:54:20.756Z,7.45
2019-06-07T08:56:28.204Z,9.50
2019-06-07T08:59:05.487Z,5.87
2019-06-07T09:01:28.353Z,9.93
2019-06-07T09:04:06.673Z,8.10
2019-06-07T09:09:05.084Z,7.80
2019-06-07T09:11:32.963Z,8.00
2019-06-07T09:14:08.672Z,7.67
2019-06-07T09:16:33.375Z,6.33
2019-06-07T09:19:10.075Z,6.95
2019-06-07T09:21:33.402Z,5.67
2019-06-07T09:24:10.458Z,7.72
2019-06-07T09:26:33.342Z,9.03
2019-06-07T09:29:08.699Z,5.80
2019-06-07T09:31:51.846Z,6.05
2019-06-07T09:34:13.699Z,4.80
2019-06-07T09:36:35.958Z,5.97
2019-06-07T09:39:10.119Z,6.03
2019-06-07T09:41:47.627Z,4.35
2019-06-07T09:44:21.433Z,5.03
2019-06-07T09:46:42.299Z,6.23
2019-06-07T09:49:26.240Z,4.58
2019-06-07T09:51:42.386Z,7.60
2019-06-07T09:55:02.391Z,5.40
2019-06-07T09:56:42.662Z,5.20
2019-06-07T09:59:12.875Z,6.45
2019-06-07T10:01:42.275Z,6.03
2019-06-07T10:04:21.938Z,5.17
2019-06-07T10:06:42.586Z,5.90
2019-06-07T10:10:09.206Z,4.25
2019-06-07T10:11:42.391Z,6.23
2019-06-07T10:14:11.583Z,7.92
2019-06-07T10:16:46.769Z,3.98
2019-06-07T10:19:11.584Z,4.33
2019-06-07T10:21:40.820Z,5.78
2019-06-07T10:24:10.088Z,18.40
2019-06-07T10:26:47.674Z,30.35
2019-06-07T10:29:16.722Z,20.57
2019-06-07T10:31:45.963Z,21.05
2019-06-07T10:34:18.065Z,14.18
2019-06-07T10:36:47.119Z,15.55
2019-06-07T10:39:18.193Z,16.70
2019-06-07T10:41:47.506Z,16.02
2019-06-07T10:44:16.827Z,12.45
2019-06-07T10:46:45.956Z,15.83
2019-06-07T10:49:16.315Z,14.10
2019-06-07T10:51:45.593Z,13.95
2019-06-07T10:54:24.675Z,13.03
2019-06-07T10:56:46.702Z,12.50
2019-06-07T10:59:25.051Z,12.43
2019-06-07T11:01:54.510Z,14.78
2019-06-07T11:04:26.198Z,8.70
2019-06-07T11:06:55.331Z,11.85
2019-06-07T11:09:25.593Z,13.03
2019-06-07T11:11:54.920Z,11.68
2019-06-07T11:14:24.473Z,9.88
2019-06-07T11:16:58.128Z,10.25
2019-06-07T11:19:27.284Z,9.18
2019-06-07T11:21:56.723Z,8.88
2019-06-07T11:24:25.680Z,8.75
2019-06-07T11:26:55.023Z,9.50
2019-06-07T11:29:24.190Z,8.60
2019-06-07T11:31:53.618Z,7.10
2019-06-07T11:34:30.365Z,8.83
2019-06-07T11:36:59.547Z,8.45
2019-06-07T11:39:31.662Z,9.05
2019-06-07T11:42:00.741Z,7.85
2019-06-07T11:44:30.058Z,8.15
2019-06-07T11:46:59.190Z,7.12
2019-06-07T11:49:28.310Z,7.65
2019-06-07T11:51:57.611Z,6.42
2019-06-07T11:54:28.810Z,7.10
2019-06-07T11:56:57.651Z,7.15
2019-06-07T11:59:35.833Z,8.48
2019-06-07T12:02:05.040Z,7.10
2019-06-07T12:04:35.112Z,8.15
2019-06-07T12:07:04.585Z,6.08
2019-06-07T12:09:33.492Z,6.58
2019-06-07T12:12:03.145Z,7.12
2019-06-07T12:14:32.267Z,6.42
2019-06-07T12:17:01.635Z,6.25
2019-06-07T12:19:30.969Z,6.10
2019-06-07T12:22:00.281Z,6.80
2019-06-07T12:24:29.452Z,6.12
2019-06-07T12:26:58.575Z,8.43
2019-06-07T12:29:28.062Z,8.25
2019-06-07T12:31:57.161Z,5.50
2019-06-07T12:34:26.422Z,5.20
2019-06-07T12:36:55.659Z,5.22
2019-06-07T12:39:24.824Z,5.50
2019-06-07T12:41:54.053Z,4.75
2019-06-07T12:44:23.355Z,5.42
2019-06-07T12:46:52.455Z,5.62
2019-06-07T12:49:23.260Z,5.08
2019-06-07T12:51:52.944Z,6.00
2019-06-07T12:54:23.712Z,6.95
2019-06-07T12:56:53.108Z,4.83
2019-06-07T12:59:22.167Z,4.05
2019-06-07T13:01:51.530Z,4.12
2019-06-07T13:04:20.721Z,4.25
2019-06-07T13:06:50.109Z,4.10
2019-06-07T13:09:22.300Z,4.75
2019-06-07T13:11:51.692Z,5.20
2019-06-07T13:14:22.039Z,5.58
2019-06-07T13:16:54.283Z,4.25
2019-06-07T13:19:24.335Z,4.15
2019-06-07T13:21:54.224Z,4.53
2019-06-07T13:24:24.950Z,5.00
2019-06-07T13:26:55.369Z,5.03
2019-06-07T13:29:24.824Z,5.37
2019-06-07T13:31:55.499Z,4.17
2019-06-07T13:34:24.572Z,5.58
2019-06-07T13:36:53.732Z,4.03
2019-06-07T13:40:10.466Z,4.42
2019-06-07T13:42:39.607Z,4.35
2019-06-07T13:45:13.532Z,4.60
2019-06-07T13:47:47.560Z,4.87
2019-06-07T13:50:17.648Z,3.98
2019-06-07T13:52:48.418Z,4.62
2019-06-07T13:55:21.861Z,9.43
2019-06-07T13:57:51.081Z,6.35
2019-06-07T14:00:23.213Z,6.87
2019-06-07T14:02:55.329Z,9.95
2019-06-07T14:05:25.100Z,6.87
2019-06-07T14:07:54.341Z,6.33
2019-06-07T14:10:23.704Z,10.03
2019-06-07T14:12:52.783Z,7.30
2019-06-07T14:15:22.424Z,10.28
2019-06-07T14:17:51.728Z,9.60
2019-06-07T14:20:28.273Z,11.05
2019-06-07T14:22:54.399Z,8.03
2019-06-07T14:25:25.055Z,7.45
2019-06-07T14:27:55.115Z,9.78
2019-06-07T14:30:24.163Z,9.83
2019-06-07T14:32:55.136Z,9.78
2019-06-07T14:35:24.535Z,6.58
2019-06-07T14:37:53.987Z,7.05
2019-06-07T14:40:23.299Z,8.40
2019-06-07T14:42:52.718Z,7.10
2019-06-07T14:45:23.989Z,5.78
2019-06-07T14:47:53.283Z,8.30
2019-06-07T14:50:22.431Z,10.25
2019-06-07T14:52:51.457Z,7.15
2019-06-07T14:55:20.610Z,9.23
2019-06-07T14:57:49.656Z,5.25
2019-06-07T15:00:19.673Z,6.03
2019-06-07T15:02:49.022Z,5.90
2019-06-07T15:05:23.559Z,5.58
2019-06-07T15:07:52.632Z,5.78
2019-06-07T15:10:21.694Z,6.53
2019-06-07T15:12:50.850Z,6.50
2019-06-07T15:15:19.946Z,6.90
2019-06-07T15:17:52.259Z,5.22
2019-06-07T15:20:21.090Z,6.78
2019-06-07T15:22:50.643Z,5.12
2019-06-07T15:25:29.234Z,5.45
2019-06-07T15:28:04.227Z,5.65
2019-06-07T15:30:33.686Z,4.60
2019-06-07T15:33:02.881Z,5.28
2019-06-07T15:35:32.296Z,5.40
2019-06-07T15:38:01.361Z,5.45
2019-06-07T15:40:31.118Z,4.72
2019-06-07T15:43:00.194Z,8.70
2019-06-07T15:45:29.494Z,5.97
2019-06-07T15:47:58.703Z,5.30
2019-06-07T15:50:28.892Z,5.15
2019-06-07T15:52:58.926Z,5.92
2019-06-07T15:55:27.989Z,4.37
2019-06-07T15:57:56.995Z,4.08
2019-06-07T16:00:27.750Z,4.47
2019-06-07T16:02:56.825Z,4.33
2019-06-07T16:05:26.034Z,4.60
2019-06-07T16:07:55.481Z,4.72
2019-06-07T16:10:25.170Z,5.72
2019-06-07T16:13:00.292Z,4.90
2019-06-07T16:15:25.090Z,3.63
2019-06-07T16:17:54.626Z,4.92
2019-06-07T16:20:23.938Z,4.25
2019-06-07T16:23:06.213Z,5.20
2019-06-07T16:25:35.791Z,3.80
2019-06-07T16:28:05.506Z,3.40
2019-06-07T16:30:36.330Z,7.03
2019-06-07T16:33:05.576Z,3.70
2019-06-07T16:35:35.006Z,4.35
2019-06-07T16:38:04.438Z,4.45
2019-06-07T16:40:33.744Z,6.05
2019-06-07T16:43:17.089Z,3.75
2019-06-07T16:45:33.839Z,4.00
2019-06-07T16:48:09.018Z,3.90
2019-06-07T16:50:38.751Z,6.85
2019-06-07T16:53:07.902Z,4.83
2019-06-07T16:55:38.869Z,7.25
2019-06-07T16:58:07.936Z,4.67
2019-06-07T17:00:38.698Z,12.90
2019-06-07T17:03:10.876Z,13.07
2019-06-07T17:05:45.065Z,30.45
2019-06-07T17:08:11.927Z,35.45
2019-06-07T17:10:42.579Z,30.20
2019-06-07T17:13:12.052Z,30.47
2019-06-07T17:15:41.022Z,24.90
2019-06-07T17:18:10.102Z,28.02
2019-06-07T17:20:39.212Z,29.30
2019-06-07T17:23:08.236Z,29.48
2019-06-07T17:25:39.776Z,19.45
2019-06-07T17:28:08.904Z,28.02
2019-06-07T17:30:41.779Z,20.62
2019-06-07T17:33:11.217Z,21.02
2019-06-07T17:35:40.294Z,17.65
2019-06-07T17:38:19.833Z,20.97
2019-06-07T17:40:51.184Z,18.30
2019-06-07T17:45:49.425Z,20.00
2019-06-07T17:48:26.791Z,13.90
2019-06-07T17:50:58.927Z,18.80
2019-06-07T17:53:30.573Z,19.48
2019-06-07T17:55:58.655Z,18.02
2019-06-07T17:58:28.094Z,15.32
2019-06-07T18:01:00.252Z,15.50
2019-06-07T18:03:29.235Z,13.20
2019-06-07T18:05:58.663Z,14.47
2019-06-07T18:08:27.872Z,12.47
2019-06-07T18:10:56.949Z,13.78
2019-06-07T18:13:25.861Z,13.08
2019-06-07T18:15:59.260Z,12.88
2019-06-07T18:18:25.533Z,12.00
2019-06-07T18:20:55.667Z,11.95
2019-06-07T18:23:25.006Z,14.68
2019-06-07T18:25:54.748Z,12.88
2019-06-07T18:28:24.041Z,13.70
2019-06-07T18:30:53.078Z,9.03
2019-06-07T18:33:22.372Z,10.50
2019-06-07T18:35:51.394Z,9.83
2019-06-07T18:38:20.656Z,10.80
2019-06-07T18:40:51.148Z,9.55
2019-06-07T18:43:20.130Z,14.98
2019-06-07T18:45:49.313Z,14.50
2019-06-07T18:48:18.224Z,11.63
2019-06-07T18:50:48.447Z,9.35
2019-06-07T18:53:17.606Z,11.28
2019-06-07T18:55:47.728Z,10.50
2019-06-07T18:58:16.767Z,12.63
2019-06-07T19:00:45.540Z,9.80
2019-06-07T19:03:14.343Z,6.42
2019-06-07T19:05:43.225Z,7.40
2019-06-07T19:08:12.071Z,10.15
2019-06-07T19:10:40.959Z,7.75
2019-06-07T19:13:09.730Z,12.45
2019-06-07T19:15:38.606Z,18.87
2019-06-07T19:18:07.475Z,6.58
2019-06-07T19:20:36.326Z,5.62
2019-06-07T19:23:05.207Z,9.23
2019-06-07T19:25:34.019Z,7.33
2019-06-07T19:28:03.258Z,8.25
2019-06-07T19:30:32.060Z,9.15
2019-06-07T19:33:01.535Z,6.42
2019-06-07T19:35:30.700Z,6.50
2019-06-07T19:37:59.997Z,8.70
2019-06-07T19:40:28.939Z,6.83
2019-06-07T19:42:58.496Z,6.53
2019-06-07T19:45:30.798Z,4.97
2019-06-07T19:47:58.702Z,7.17
2019-06-07T19:50:27.699Z,6.42
2019-06-07T19:52:57.076Z,6.67
2019-06-07T19:55:26.551Z,8.58
2019-06-07T19:57:59.561Z,6.00
2019-06-07T20:00:28.487Z,8.90
2019-06-07T20:02:57.830Z,5.58
2019-06-07T20:05:26.846Z,6.62
2019-06-07T20:07:56.473Z,4.97
2019-06-07T20:10:25.881Z,6.75
2019-06-07T20:12:54.847Z,9.35
2019-06-07T20:15:28.901Z,6.85
2019-06-07T20:17:55.130Z,4.58
2019-06-07T20:20:24.142Z,3.17
2019-06-07T20:22:53.006Z,4.45
2019-06-07T20:25:21.994Z,5.28
2019-06-07T20:27:50.871Z,6.17
2019-06-07T20:30:19.878Z,5.22
2019-06-07T20:32:48.753Z,4.00
2019-06-07T20:35:17.653Z,4.80
2019-06-07T20:37:46.555Z,5.15
2019-06-07T20:40:24.061Z,7.12
2019-06-07T20:42:48.206Z,3.87
2019-06-07T20:45:32.107Z,4.62
2019-06-07T20:47:47.935Z,4.70
2019-06-07T20:50:16.822Z,6.10
2019-06-07T20:52:45.610Z,8.85
2019-06-07T20:55:14.914Z,5.50
2019-06-07T20:57:43.954Z,4.15
2019-06-07T21:00:21.027Z,4.62
2019-06-07T21:02:43.346Z,2.98
2019-06-07T21:05:12.141Z,3.65
2019-06-07T21:07:41.081Z,5.75
2019-06-07T21:10:11.045Z,2.98
2019-06-07T21:12:40.270Z,4.08
2019-06-07T21:15:12.744Z,4.05
2019-06-07T21:17:39.927Z,3.87
2019-06-07T21:20:13.284Z,3.35
2019-06-07T21:22:39.707Z,5.12
2019-06-07T21:25:09.508Z,3.27
2019-06-07T21:27:38.930Z,4.45
2019-06-07T21:30:09.546Z,4.08
2019-06-07T21:32:38.620Z,3.37
2019-06-07T21:35:07.985Z,4.78
2019-06-07T21:37:37.578Z,6.37
2019-06-07T21:40:06.395Z,4.22
2019-06-07T21:42:35.314Z,3.62
2019-06-07T21:45:05.857Z,6.00
2019-06-07T21:47:34.822Z,4.90
2019-06-07T21:50:04.920Z,3.00
2019-06-07T21:52:33.778Z,4.75
2019-06-07T21:55:02.900Z,4.17
2019-06-07T21:57:31.869Z,4.60
2019-06-07T22:00:00.841Z,4.12
2019-06-07T22:02:31.114Z,4.03
2019-06-07T22:05:00.113Z,10.23
2019-06-07T22:07:29.012Z,2.83
2019-06-07T22:09:57.938Z,4.08
2019-06-07T22:12:26.862Z,3.75
2019-06-07T22:14:55.997Z,3.40
2019-06-07T22:17:25.090Z,2.20
2019-06-07T22:19:53.971Z,4.80
2019-06-07T22:22:22.940Z,3.92
2019-06-07T22:24:51.765Z,3.95
2019-06-07T22:27:20.676Z,2.98
2019-06-07T22:29:49.446Z,6.78
2019-06-07T22:32:19.162Z,5.90
2019-06-07T22:34:48.131Z,3.30
2019-06-07T22:37:20.255Z,2.95
2019-06-07T22:39:48.826Z,10.20
2019-06-07T22:42:17.626Z,5.95
2019-06-07T22:44:46.574Z,8.43
2019-06-07T22:47:16.152Z,10.80
2019-06-07T22:49:45.018Z,9.85
2019-06-07T22:52:15.342Z,9.43
2019-06-07T22:54:44.415Z,9.55
2019-06-07T22:57:18.921Z,8.98
2019-06-07T22:59:47.717Z,9.98
2019-06-07T23:02:16.742Z,8.15
2019-06-07T23:04:45.764Z,8.20
2019-06-07T23:07:14.978Z,12.50
2019-06-07T23:09:43.829Z,9.90
2019-06-07T23:12:13.179Z,8.13
2019-06-07T23:14:42.098Z,5.65
2019-06-07T23:17:11.608Z,7.75
2019-06-07T23:19:40.586Z,6.42
2019-06-07T23:22:09.895Z,4.80
2019-06-07T23:24:38.871Z,4.67
2019-06-07T23:27:07.745Z,2.52
2019-06-07T23:29:36.615Z,2.20
2019-06-07T23:32:05.714Z,3.22
2019-06-07T23:34:34.579Z,5.85
2019-06-07T23:37:03.449Z,6.42
2019-06-07T23:39:32.357Z,5.78
2019-06-07T23:42:01.151Z,3.47
2019-06-07T23:44:30.226Z,5.65
2019-06-07T23:47:10.754Z,3.17
2019-06-07T23:49:29.630Z,2.37
2019-06-07T23:51:58.446Z,2.27
2019-06-07T23:54:30.583Z,3.75
2019-06-07T23:56:59.428Z,2.10
2019-06-07T23:59:28.202Z,7.35
